createdAt,value
2022-12-13T00:01:45.368Z,17.80
2022-12-13T00:04:12.001Z,17.60
2022-12-13T00:06:38.331Z,21.10
2022-12-13T00:09:04.980Z,20.87
2022-12-13T00:11:31.540Z,19.30
2022-12-13T00:13:58.161Z,19.60
2022-12-13T00:16:25.238Z,19.40
2022-12-13T00:18:56.416Z,22.07
2022-12-13T00:21:24.365Z,19.53
2022-12-13T00:23:50.765Z,19.27
2022-12-13T00:26:18.546Z,18.10
2022-12-13T00:28:45.090Z,19.43
2022-12-13T00:31:51.619Z,22.20
2022-12-13T00:33:58.547Z,21.43
2022-12-13T00:36:24.814Z,22.53
2022-12-13T00:39:00.438Z,20.43
2022-12-13T00:41:36.130Z,20.93
2022-12-13T00:44:03.092Z,20.50
2022-12-13T00:46:29.702Z,20.93
2022-12-13T00:48:57.235Z,19.90
2022-12-13T00:51:24.179Z,20.70
2022-12-13T00:53:50.715Z,22.53
2022-12-13T00:56:25.403Z,22.57
2022-12-13T00:58:52.476Z,20.73
2022-12-13T01:01:28.535Z,20.33
2022-12-13T01:03:55.789Z,21.57
2022-12-13T01:06:42.398Z,23.00
2022-12-13T01:09:14.263Z,21.73
2022-12-13T01:11:40.511Z,22.07
2022-12-13T01:14:06.772Z,21.57
2022-12-13T01:16:33.115Z,20.53
2022-12-13T01:18:59.500Z,24.27
2022-12-13T01:21:25.746Z,23.63
2022-12-13T01:23:51.987Z,23.13
2022-12-13T01:26:19.786Z,23.40
2022-12-13T01:28:46.477Z,21.50
2022-12-13T01:31:19.234Z,22.33
2022-12-13T01:33:45.992Z,22.53
2022-12-13T01:36:14.713Z,24.37
2022-12-13T01:38:40.984Z,24.13
2022-12-13T01:41:16.697Z,26.47
2022-12-13T01:43:44.160Z,24.60
2022-12-13T01:46:10.618Z,23.33
2022-12-13T01:48:39.754Z,23.10
2022-12-13T01:51:06.846Z,21.43
2022-12-13T01:53:37.470Z,22.83
2022-12-13T01:56:08.868Z,22.93
2022-12-13T01:58:36.517Z,18.43
2022-12-13T02:01:03.122Z,21.60
2022-12-13T02:03:29.525Z,22.83
2022-12-13T02:06:07.652Z,22.13
2022-12-13T02:14:13.711Z,21.43
2022-12-13T02:16:47.885Z,21.27
2022-12-13T02:19:14.088Z,22.37
2022-12-13T02:21:52.902Z,24.03
2022-12-13T02:24:33.302Z,20.17
2022-12-13T02:27:09.936Z,21.67
2022-12-13T02:29:51.026Z,21.87
2022-12-13T02:32:24.667Z,22.73
2022-12-13T02:34:50.873Z,21.00
2022-12-13T02:37:30.622Z,22.77
2022-12-13T02:39:59.607Z,22.13
2022-12-13T02:42:27.596Z,23.70
2022-12-13T02:44:57.020Z,23.90
2022-12-13T02:47:25.151Z,24.63
2022-12-13T02:49:54.023Z,24.07
2022-12-13T02:52:22.991Z,24.67
2022-12-13T02:54:49.425Z,25.17
2022-12-13T02:57:29.435Z,23.80
2022-12-13T02:59:56.727Z,22.00
2022-12-13T03:02:38.329Z,24.10
2022-12-13T03:05:41.935Z,26.30
2022-12-13T03:08:17.650Z,21.30
2022-12-13T03:10:47.594Z,21.73
2022-12-13T03:13:36.784Z,25.80
2022-12-13T03:16:12.671Z,23.83
2022-12-13T03:18:39.703Z,22.23
2022-12-13T03:21:08.880Z,25.07
2022-12-13T03:23:35.923Z,25.87
2022-12-13T03:26:04.988Z,20.47
2022-12-13T03:28:31.214Z,22.43
2022-12-13T03:30:57.517Z,22.23
2022-12-13T03:33:23.804Z,23.03
2022-12-13T03:35:50.057Z,20.37
2022-12-13T03:38:22.438Z,20.10
2022-12-13T03:40:50.513Z,20.67
2022-12-13T03:43:22.208Z,21.97
2022-12-13T03:45:48.947Z,20.03
2022-12-13T03:48:22.377Z,20.73
2022-12-13T03:50:50.769Z,22.87
2022-12-13T03:53:22.350Z,22.47
2022-12-13T03:55:58.663Z,23.87
2022-12-13T03:58:27.271Z,24.57
2022-12-13T04:01:02.344Z,23.33
2022-12-13T04:03:33.898Z,21.30
2022-12-13T04:06:00.137Z,25.30
2022-12-13T04:08:26.417Z,21.17
2022-12-13T04:10:52.678Z,21.97
2022-12-13T04:13:34.439Z,21.97
2022-12-13T04:16:01.633Z,19.67
2022-12-13T04:18:28.183Z,23.57
2022-12-13T04:20:54.395Z,22.50
2022-12-13T04:23:20.650Z,22.03
2022-12-13T04:25:47.066Z,20.67
2022-12-13T04:28:22.269Z,20.27
2022-12-13T04:30:53.517Z,22.33
2022-12-13T04:33:21.174Z,23.20
2022-12-13T04:35:47.971Z,22.13
2022-12-13T04:38:14.214Z,18.30
2022-12-13T04:40:40.459Z,23.87
2022-12-13T04:43:06.689Z,22.47
2022-12-13T04:45:33.987Z,23.10
2022-12-13T04:48:00.280Z,22.00
2022-12-13T04:50:26.616Z,22.60
2022-12-13T04:52:52.836Z,23.13
2022-12-13T04:55:19.085Z,22.83
2022-12-13T04:57:45.352Z,22.80
2022-12-13T05:00:13.257Z,23.37
2022-12-13T05:02:41.482Z,18.90
2022-12-13T05:05:09.270Z,23.13
2022-12-13T05:07:35.736Z,22.17
2022-12-13T05:10:08.995Z,24.23
2022-12-13T05:12:35.213Z,19.77
2022-12-13T05:15:01.429Z,20.83
2022-12-13T05:17:28.572Z,22.90
2022-12-13T05:19:54.819Z,19.67
2022-12-13T05:22:21.371Z,18.13
2022-12-13T05:24:47.965Z,23.20
2022-12-13T05:27:25.575Z,20.57
2022-12-13T05:30:05.051Z,21.17
2022-12-13T05:32:43.733Z,20.47
2022-12-13T05:35:21.707Z,17.47
2022-12-13T05:37:53.438Z,18.23
2022-12-13T05:40:20.676Z,20.47
2022-12-13T05:42:46.893Z,18.87
2022-12-13T05:45:13.565Z,20.30
2022-12-13T05:47:39.927Z,19.83
2022-12-13T05:50:06.405Z,20.23
2022-12-13T05:52:32.642Z,18.33
2022-12-13T05:55:13.143Z,19.87
2022-12-13T05:57:39.537Z,19.90
2022-12-13T06:00:06.781Z,21.30
2022-12-13T06:02:53.132Z,21.23
2022-12-13T06:05:19.414Z,22.97
2022-12-13T06:07:45.622Z,20.43
2022-12-13T06:10:11.888Z,21.13
2022-12-13T06:12:43.340Z,23.47
2022-12-13T06:15:21.738Z,21.03
2022-12-13T06:17:49.086Z,22.40
2022-12-13T06:20:24.444Z,22.10
2022-12-13T06:22:51.727Z,22.77
2022-12-13T06:25:30.896Z,22.13
2022-12-13T06:27:58.245Z,26.23
2022-12-13T06:30:27.313Z,27.23
2022-12-13T06:32:53.704Z,22.57
2022-12-13T06:35:28.523Z,24.97
2022-12-13T06:38:00.832Z,25.40
2022-12-13T06:40:28.067Z,26.00
2022-12-13T06:42:54.275Z,26.73
2022-12-13T06:45:20.546Z,24.30
2022-12-13T06:47:46.769Z,24.67
2022-12-13T06:50:13.055Z,25.23
2022-12-13T06:52:39.258Z,27.37
2022-12-13T06:55:05.776Z,28.97
2022-12-13T06:57:32.788Z,28.27
2022-12-13T06:59:59.234Z,28.97
2022-12-13T07:02:26.186Z,27.93
2022-12-13T07:04:52.862Z,26.60
2022-12-13T07:07:19.076Z,28.73
2022-12-13T07:09:45.335Z,26.77
2022-12-13T07:12:11.534Z,26.37
2022-12-13T07:14:40.874Z,29.53
2022-12-13T07:17:07.594Z,28.37
2022-12-13T07:19:34.831Z,25.77
2022-12-13T07:22:02.152Z,27.30
2022-12-13T07:24:28.387Z,23.77
2022-12-13T07:26:54.605Z,28.23
2022-12-13T07:29:22.781Z,27.10
2022-12-13T07:31:49.236Z,26.67
2022-12-13T07:34:15.908Z,24.20
2022-12-13T07:36:42.200Z,29.83
2022-12-13T07:39:08.476Z,29.00
2022-12-13T07:41:35.223Z,28.77
2022-12-13T07:44:01.467Z,28.63
2022-12-13T07:46:32.118Z,29.37
2022-12-13T07:49:01.577Z,26.23
2022-12-13T07:51:28.212Z,29.83
2022-12-13T07:53:54.438Z,26.80
2022-12-13T07:56:20.653Z,29.30
2022-12-13T07:58:47.355Z,27.83
2022-12-13T08:01:13.593Z,27.83
2022-12-13T08:03:40.067Z,28.57
2022-12-13T08:06:08.271Z,29.30
2022-12-13T08:08:34.765Z,28.30
2022-12-13T08:11:04.955Z,28.97
2022-12-13T08:13:31.225Z,30.33
2022-12-13T08:16:26.542Z,26.17
2022-12-13T08:18:53.816Z,26.50
2022-12-13T08:21:53.448Z,29.77
2022-12-13T08:24:16.111Z,30.10
2022-12-13T08:26:42.368Z,30.27
2022-12-13T08:29:08.822Z,28.40
2022-12-13T08:31:35.105Z,27.73
2022-12-13T08:34:01.407Z,29.53
2022-12-13T08:36:28.572Z,32.33
2022-12-13T08:38:55.435Z,33.37
2022-12-13T08:41:21.802Z,30.33
2022-12-13T08:43:48.083Z,27.40
2022-12-13T08:46:14.794Z,28.50
2022-12-13T08:48:43.800Z,29.13
2022-12-13T08:51:13.051Z,25.53
2022-12-13T08:53:41.219Z,26.03
2022-12-13T08:56:10.791Z,29.47
2022-12-13T08:58:37.907Z,28.03
2022-12-13T09:01:10.351Z,25.73
2022-12-13T09:03:37.440Z,26.37
2022-12-13T09:06:11.185Z,25.37
2022-12-13T09:08:37.809Z,25.80
2022-12-13T09:11:11.329Z,30.27
2022-12-13T09:13:50.235Z,30.97
2022-12-13T09:16:23.443Z,27.17
2022-12-13T09:18:55.404Z,26.30
2022-12-13T09:21:31.417Z,25.47
2022-12-13T09:24:01.337Z,25.33
2022-12-13T09:26:28.462Z,26.70
2022-12-13T09:28:54.680Z,29.00
2022-12-13T09:31:21.085Z,24.93
2022-12-13T09:33:47.314Z,29.03
2022-12-13T09:36:15.063Z,26.43
2022-12-13T09:38:41.596Z,28.67
2022-12-13T09:41:19.833Z,28.73
2022-12-13T09:43:47.575Z,30.67
2022-12-13T09:46:26.499Z,28.47
2022-12-13T09:49:02.210Z,25.43
2022-12-13T09:51:43.676Z,23.67
2022-12-13T09:54:16.623Z,29.23
2022-12-13T09:56:42.840Z,29.50
2022-12-13T09:59:12.106Z,26.03
2022-12-13T10:01:38.458Z,23.50
2022-12-13T10:04:11.098Z,32.10
2022-12-13T10:06:37.496Z,28.57
2022-12-13T10:09:06.641Z,28.43
2022-12-13T10:11:33.295Z,30.30
2022-12-13T10:14:01.938Z,27.53
2022-12-13T10:16:35.850Z,23.57
2022-12-13T10:19:29.232Z,25.50
2022-12-13T10:22:02.288Z,25.23
2022-12-13T10:24:37.303Z,24.90
2022-12-13T10:27:11.641Z,26.80
2022-12-13T10:30:01.179Z,19.97
2022-12-13T10:32:27.814Z,25.23
2022-12-13T10:34:55.357Z,21.00
2022-12-13T10:37:27.431Z,20.47
2022-12-13T10:39:53.650Z,21.80
2022-12-13T10:42:23.382Z,21.30
2022-12-13T10:45:10.461Z,20.23
2022-12-13T10:47:36.829Z,18.83
2022-12-13T10:50:03.183Z,19.37
2022-12-13T10:52:32.045Z,21.40
2022-12-13T10:55:23.117Z,20.90
2022-12-13T10:57:54.022Z,19.73
2022-12-13T11:00:30.178Z,20.70
2022-12-13T11:02:56.462Z,17.13
2022-12-13T11:05:27.137Z,18.13
2022-12-13T11:07:55.370Z,20.97
2022-12-13T11:10:28.613Z,20.03
2022-12-13T11:13:00.833Z,22.97
2022-12-13T11:15:29.238Z,23.40
2022-12-13T11:17:57.500Z,19.13
2022-12-13T11:20:25.816Z,21.13
2022-12-13T11:22:59.858Z,21.63
2022-12-13T11:25:29.592Z,21.27
2022-12-13T11:28:26.636Z,21.77
2022-12-13T11:31:10.946Z,20.33
2022-12-13T11:33:51.777Z,19.83
2022-12-13T11:36:33.384Z,21.50
2022-12-13T11:39:12.153Z,24.43
2022-12-13T11:41:41.986Z,20.17
2022-12-13T11:44:17.154Z,22.13
2022-12-13T11:46:46.207Z,20.27
2022-12-13T11:49:19.193Z,20.07
2022-12-13T11:51:58.122Z,21.27
2022-12-13T11:54:43.019Z,22.80
2022-12-13T11:57:16.381Z,18.37
2022-12-13T11:59:46.303Z,18.17
2022-12-13T12:02:29.402Z,14.37
2022-12-13T12:05:00.421Z,17.90
2022-12-13T12:07:34.800Z,15.83
2022-12-13T12:10:13.542Z,18.63
2022-12-13T12:12:42.211Z,16.40
2022-12-13T12:15:15.418Z,16.10
2022-12-13T12:17:42.748Z,16.40
2022-12-13T12:20:11.964Z,16.53
2022-12-13T12:22:47.815Z,16.60
2022-12-13T12:25:46.013Z,21.37
2022-12-13T12:28:12.277Z,16.50
2022-12-13T12:30:39.648Z,16.10
2022-12-13T12:33:27.918Z,15.77
2022-12-13T12:36:06.216Z,15.87
2022-12-13T12:39:02.000Z,18.33
2022-12-13T12:41:37.295Z,20.90
2022-12-13T12:44:30.662Z,20.77
2022-12-13T12:47:49.026Z,17.23
2022-12-13T12:50:25.711Z,17.73
2022-12-13T12:53:11.415Z,17.70
2022-12-13T12:55:40.362Z,17.63
2022-12-13T12:58:13.271Z,16.60
2022-12-13T13:00:46.349Z,17.03
2022-12-13T13:03:22.539Z,23.63
2022-12-13T13:06:01.638Z,15.77
2022-12-13T13:08:47.704Z,18.03
2022-12-13T13:11:25.185Z,18.50
2022-12-13T13:13:57.672Z,18.57
2022-12-13T13:16:30.265Z,15.80
2022-12-13T13:18:58.162Z,19.63
2022-12-13T13:21:25.753Z,18.13
2022-12-13T13:24:05.191Z,20.43
2022-12-13T13:26:36.324Z,17.67
2022-12-13T13:29:27.480Z,17.27
2022-12-13T13:32:01.940Z,20.43
2022-12-13T13:34:30.307Z,17.27
2022-12-13T13:36:58.248Z,17.37
2022-12-13T13:39:27.470Z,21.33
2022-12-13T13:41:56.789Z,20.33
2022-12-13T13:44:33.221Z,18.03
2022-12-13T13:47:18.282Z,20.27
2022-12-13T13:50:04.596Z,19.63
2022-12-13T13:52:49.355Z,20.33
2022-12-13T13:55:37.311Z,24.67
2022-12-13T13:58:22.283Z,21.70
2022-12-13T14:01:08.623Z,18.57
2022-12-13T14:03:50.296Z,15.67
2022-12-13T14:06:42.073Z,18.20
2022-12-13T14:09:40.701Z,18.83
2022-12-13T14:12:06.894Z,19.43
2022-12-13T14:14:49.777Z,18.93
2022-12-13T14:17:48.872Z,18.50
2022-12-13T14:20:22.681Z,17.07
2022-12-13T14:23:21.929Z,18.47
2022-12-13T14:25:52.720Z,26.73
2022-12-13T14:28:37.893Z,17.57
2022-12-13T14:31:04.247Z,18.65
2022-12-13T14:33:35.549Z,22.37
2022-12-13T14:36:03.479Z,19.87
2022-12-13T14:38:30.829Z,18.23
2022-12-13T14:40:58.584Z,19.13
2022-12-13T14:43:26.360Z,22.30
2022-12-13T14:45:57.566Z,24.03
2022-12-13T14:48:28.547Z,20.27
2022-12-13T14:50:55.423Z,21.63
2022-12-13T14:53:24.813Z,24.87
2022-12-13T14:56:05.055Z,22.00
2022-12-13T14:58:32.521Z,22.37
2022-12-13T15:00:58.921Z,23.87
2022-12-13T15:03:26.402Z,23.93
2022-12-13T15:05:54.764Z,22.30
2022-12-13T15:08:21.544Z,19.67
2022-12-13T15:10:49.369Z,21.73
2022-12-13T15:13:23.062Z,21.10
2022-12-13T15:15:54.457Z,27.20
2022-12-13T15:18:22.799Z,24.50
2022-12-13T15:20:49.914Z,20.60
2022-12-13T15:23:18.958Z,23.47
2022-12-13T15:25:45.686Z,22.80
2022-12-13T15:28:21.208Z,23.77
2022-12-13T15:30:48.560Z,23.57
2022-12-13T15:33:33.461Z,25.33
2022-12-13T15:36:04.080Z,24.73
2022-12-13T15:38:30.737Z,21.07
2022-12-13T15:40:56.972Z,25.00
2022-12-13T15:43:30.779Z,26.17
2022-12-13T15:45:57.134Z,26.97
2022-12-13T15:48:30.946Z,24.53
2022-12-13T15:51:07.354Z,25.87
2022-12-13T15:53:34.115Z,22.13
2022-12-13T15:56:03.406Z,26.07
2022-12-13T15:58:36.714Z,26.70
2022-12-13T16:01:05.425Z,26.43
2022-12-13T16:03:42.427Z,23.30
2022-12-13T16:06:09.486Z,30.33
2022-12-13T16:08:37.902Z,26.47
2022-12-13T16:11:04.664Z,25.40
2022-12-13T16:13:36.741Z,23.67
2022-12-13T16:16:26.920Z,26.37
2022-12-13T16:18:55.194Z,26.13
2022-12-13T16:21:21.414Z,27.47
2022-12-13T16:23:48.590Z,29.27
2022-12-13T16:26:20.178Z,25.37
2022-12-13T16:28:46.742Z,28.50
2022-12-13T16:31:23.337Z,26.37
2022-12-13T16:33:49.660Z,28.67
2022-12-13T16:36:15.985Z,26.80
2022-12-13T16:38:42.221Z,34.60
2022-12-13T16:41:09.542Z,31.50
2022-12-13T16:43:44.679Z,27.07
2022-12-13T16:47:15.373Z,27.27
2022-12-13T16:48:57.811Z,31.77
2022-12-13T16:51:24.270Z,28.37
2022-12-13T16:53:50.502Z,25.57
2022-12-13T16:56:21.434Z,28.50
2022-12-13T16:58:50.283Z,28.73
2022-12-13T17:01:18.907Z,25.97
2022-12-13T17:03:45.185Z,27.00
2022-12-13T17:06:12.345Z,26.53
2022-12-13T17:08:38.573Z,25.40
2022-12-13T17:11:06.850Z,26.77
2022-12-13T17:13:33.243Z,25.23
2022-12-13T17:16:00.072Z,26.80
2022-12-13T17:18:26.428Z,27.67
2022-12-13T17:20:58.415Z,29.73
2022-12-13T17:23:26.160Z,26.57
2022-12-13T17:25:57.974Z,28.83
2022-12-13T17:28:24.989Z,28.83
2022-12-13T17:30:54.999Z,26.60
2022-12-13T17:33:21.741Z,27.73
2022-12-13T17:35:48.043Z,27.10
2022-12-13T17:38:14.263Z,29.17
2022-12-13T17:40:40.478Z,26.60
2022-12-13T17:43:07.373Z,29.00
2022-12-13T17:45:33.747Z,27.50
2022-12-13T17:47:59.973Z,26.97
2022-12-13T17:50:26.887Z,28.83
2022-12-13T17:52:53.104Z,30.07
2022-12-13T17:55:19.307Z,28.27
2022-12-13T17:57:45.519Z,33.30
2022-12-13T18:00:13.404Z,25.47
2022-12-13T18:02:39.690Z,28.40
2022-12-13T18:05:07.017Z,27.20
2022-12-13T18:07:33.240Z,29.90
2022-12-13T18:09:59.460Z,30.77
2022-12-13T18:12:26.535Z,29.73
2022-12-13T18:14:53.567Z,32.53
2022-12-13T18:17:40.436Z,28.30
2022-12-13T18:20:09.600Z,34.00
2022-12-13T18:22:41.456Z,30.30
2022-12-13T18:25:08.878Z,30.57
2022-12-13T18:27:35.504Z,28.63
2022-12-13T18:30:01.770Z,30.43
2022-12-13T18:32:28.233Z,30.00
2022-12-13T18:34:54.784Z,30.27
2022-12-13T18:37:21.141Z,29.67
2022-12-13T18:39:54.963Z,29.57
2022-12-13T18:42:30.198Z,28.77
2022-12-13T18:44:56.421Z,28.67
2022-12-13T18:47:22.852Z,27.97
2022-12-13T18:49:55.223Z,28.23
2022-12-13T18:52:22.006Z,29.33
2022-12-13T18:54:54.444Z,29.70
2022-12-13T18:57:21.214Z,30.53
2022-12-13T18:59:54.086Z,24.63
2022-12-13T19:02:21.305Z,29.00
2022-12-13T19:04:55.569Z,29.97
2022-12-13T19:07:22.126Z,31.23
2022-12-13T19:09:54.816Z,28.03
2022-12-13T19:12:21.485Z,30.00
2022-12-13T19:14:54.875Z,27.80
2022-12-13T19:17:21.691Z,30.53
2022-12-13T19:19:48.290Z,31.73
2022-12-13T19:22:15.797Z,26.87
2022-12-13T19:24:42.496Z,32.80
2022-12-13T19:27:08.728Z,32.40
2022-12-13T19:29:35.019Z,29.60
2022-12-13T19:32:01.325Z,28.43
2022-12-13T19:34:27.588Z,28.20
2022-12-13T19:36:54.031Z,27.83
2022-12-13T19:39:20.249Z,27.83
2022-12-13T19:41:46.484Z,28.40
2022-12-13T19:44:12.712Z,34.83
2022-12-13T19:46:38.984Z,31.20
2022-12-13T19:49:06.566Z,30.87
2022-12-13T19:51:39.105Z,30.30
2022-12-13T19:54:06.031Z,32.30
2022-12-13T19:56:32.263Z,30.27
2022-12-13T19:58:58.502Z,32.63
2022-12-13T20:01:24.832Z,33.70
2022-12-13T20:03:51.270Z,30.83
2022-12-13T20:06:19.471Z,29.77
2022-12-13T20:08:46.262Z,31.17
2022-12-13T20:11:14.849Z,30.57
2022-12-13T20:13:41.474Z,29.30
2022-12-13T20:16:08.287Z,29.97
2022-12-13T20:18:34.844Z,31.70
2022-12-13T20:21:11.577Z,28.23
2022-12-13T20:23:38.641Z,28.90
2022-12-13T20:26:06.608Z,30.63
2022-12-13T20:28:32.841Z,30.67
2022-12-13T20:31:08.258Z,31.43
2022-12-13T20:33:34.702Z,30.23
2022-12-13T20:36:23.691Z,30.17
2022-12-13T20:38:48.182Z,32.53
2022-12-13T20:41:14.771Z,28.80
2022-12-13T20:43:42.645Z,28.83
2022-12-13T20:46:10.831Z,33.73
2022-12-13T20:48:38.028Z,30.80
2022-12-13T20:51:05.859Z,32.43
2022-12-13T20:53:37.639Z,32.43
2022-12-13T20:56:04.491Z,36.67
2022-12-13T20:58:33.344Z,27.60
2022-12-13T21:01:03.588Z,30.20
2022-12-13T21:03:35.160Z,31.87
2022-12-13T21:06:01.390Z,27.77
2022-12-13T21:08:46.593Z,31.03
2022-12-13T21:11:24.754Z,26.20
2022-12-13T21:13:59.035Z,29.30
2022-12-13T21:16:32.678Z,29.33
2022-12-13T21:19:00.318Z,29.37
2022-12-13T21:21:27.095Z,27.60
2022-12-13T21:23:53.584Z,27.33
2022-12-13T21:26:22.793Z,29.03
2022-12-13T21:28:52.993Z,25.83
2022-12-13T21:31:23.441Z,32.53
2022-12-13T21:33:51.211Z,27.23
2022-12-13T21:36:21.744Z,29.50
2022-12-13T21:38:48.541Z,28.77
2022-12-13T21:41:15.869Z,28.83
2022-12-13T21:43:42.174Z,27.13
2022-12-13T21:46:15.791Z,26.57
2022-12-13T21:48:42.716Z,26.50
2022-12-13T21:51:10.907Z,29.37
2022-12-13T21:53:37.213Z,28.30
2022-12-13T21:56:25.809Z,25.87
2022-12-13T21:59:10.490Z,27.70
2022-12-13T22:01:55.370Z,29.83
2022-12-13T22:04:22.054Z,27.93
2022-12-13T22:06:49.064Z,30.10
2022-12-13T22:09:15.279Z,27.60
2022-12-13T22:11:41.569Z,26.00
2022-12-13T22:14:07.810Z,27.23
2022-12-13T22:16:34.122Z,26.17
2022-12-13T22:19:00.380Z,31.63
2022-12-13T22:21:26.616Z,26.73
2022-12-13T22:23:53.903Z,27.03
2022-12-13T22:26:20.566Z,26.00
2022-12-13T22:28:46.789Z,26.83
2022-12-13T22:31:13.003Z,29.60
2022-12-13T22:33:39.223Z,26.37
2022-12-13T22:36:05.534Z,30.07
2022-12-13T22:38:31.763Z,31.13
2022-12-13T22:41:01.404Z,31.47
2022-12-13T22:43:27.628Z,30.50
2022-12-13T22:46:01.038Z,28.83
2022-12-13T22:48:27.562Z,27.97
2022-12-13T22:50:54.027Z,33.40
2022-12-13T22:53:20.239Z,27.23
2022-12-13T22:55:46.660Z,29.77
2022-12-13T22:58:12.951Z,29.67
2022-12-13T23:00:39.212Z,31.03
2022-12-13T23:03:05.672Z,27.93
2022-12-13T23:05:31.928Z,31.13
2022-12-13T23:07:58.154Z,30.70
2022-12-13T23:10:43.102Z,30.93
2022-12-13T23:13:12.688Z,33.00
2022-12-13T23:15:38.912Z,30.83
2022-12-13T23:18:05.181Z,28.27
2022-12-13T23:20:34.259Z,30.50
2022-12-13T23:23:00.503Z,28.20
2022-12-13T23:25:26.718Z,30.40
2022-12-13T23:27:52.930Z,32.20
2022-12-13T23:30:19.158Z,28.40
2022-12-13T23:32:45.453Z,29.20
2022-12-13T23:35:12.540Z,32.40
2022-12-13T23:37:39.069Z,27.30
2022-12-13T23:40:05.588Z,25.43
2022-12-13T23:42:31.833Z,26.67
2022-12-13T23:44:58.058Z,24.83
2022-12-13T23:47:24.280Z,25.67
2022-12-13T23:49:50.500Z,28.13
2022-12-13T23:52:16.793Z,29.80
2022-12-13T23:54:43.028Z,26.93
2022-12-13T23:57:09.237Z,28.23
2022-12-13T23:59:35.909Z,26.33
